Upstream stations:
Downstream station:
SHEF ID: SNCO2 North Canadian River at Shawnee,
STATION TYPE:
STAGE RIV-FLOW BAT-LOAD
ft cfs volt
Ccp-Rev Ccp-Rev Ccp-Rev
(US/Central)
03/15 00:00 9.61 182 12.57
03/15 01:00 9.60 179 12.54
03/15 02:00 9.58 174 12.53
03/15 03:00 9.57 171 12.51
03/15 04:00 9.56 169 12.50
03/15 05:00 9.55 166 12.47
03/15 06:00 9.54 164 12.46
03/15 07:00 9.52 159 12.44
03/15 08:00 9.52 159 12.42
03/15 09:00 9.48 149 12.76
03/15 10:00 9.39 127 13.29
03/15 11:00 9.44 139 13.36
03/15 12:00 9.52 159 13.30
03/15 13:00 9.56 169 13.19
03/15 14:00 9.45 141 13.17
03/15 15:00 9.56 169 13.13
03/15 16:00 9.57 171 13.09
03/15 17:00 9.56 169 13.07
03/15 18:00 9.57 171 13.04
03/15 19:00 9.60 179 13.03
03/15 20:00 9.62 185 12.80
03/15 21:00 9.62 185 12.70
03/15 22:00 9.62 185 12.65
03/15 23:00 ---- ---- ----